Time;durP1;ratioP1;P1;durP2;ratioP2;P2;SDS_P1;SDS_P2;PMS_P1;PMS_P2;Temp;Humidity;BMP_temperature;BMP_pressure;BME280_temperature;BME280_humidity;BME280_pressure;Samples;Min_cycle;Max_cycle;Signal;HPM_P1;HPM_P2
2021/08/29 00:01:01;;;;;;;3.13;2.75;;;;;;;17.15;83.09;100259.16;10378335;28;20080;-60
2021/08/29 00:06:02;;;;;;;3.38;2.88;;;;;;;17.11;84.04;100264.06;10397969;28;20452;-63
2021/08/29 00:11:04;;;;;;;3.40;2.75;;;;;;;17.10;83.21;100248.09;10380890;28;20122;-59
2021/08/29 00:16:05;;;;;;;4.40;2.70;;;;;;;17.06;84.63;100241.34;10380644;28;20056;-60
2021/08/29 00:21:07;;;;;;;3.15;2.80;;;;;;;17.08;83.72;100237.50;10380203;28;20528;-65
2021/08/29 00:26:08;;;;;;;2.63;2.42;;;;;;;16.87;84.57;100243.31;10379320;28;20053;-60
2021/08/29 00:31:10;;;;;;;3.13;2.35;;;;;;;16.90;85.85;100243.00;10382289;28;20065;-64
2021/08/29 00:36:11;;;;;;;2.30;2.10;;;;;;;17.00;85.16;100244.69;10383970;28;20105;-62
2021/08/29 00:41:13;;;;;;;3.83;2.03;;;;;;;16.86;84.59;100228.19;10379965;28;20128;-63
2021/08/29 00:46:15;;;;;;;3.08;2.30;;;;;;;16.76;86.70;100224.78;10381508;28;20128;-61
2021/08/29 00:51:17;;;;;;;2.55;2.35;;;;;;;16.77;87.21;100226.47;10383111;28;20049;-63
2021/08/29 00:56:18;;;;;;;3.83;2.30;;;;;;;16.81;87.07;100224.28;10381564;28;20136;-63
2021/08/29 01:01:23;;;;;;;3.05;2.30;;;;;;;16.73;87.91;100212.50;10381171;28;20059;-62
2021/08/29 01:06:31;;;;;;;2.42;1.35;;;;;;;16.79;87.01;100203.78;10394929;28;20687;-61
2021/08/29 01:11:35;;;;;;;0.95;0.85;;;;;;;16.89;86.10;100201.00;10381253;28;20053;-62
2021/08/29 01:16:37;;;;;;;2.35;1.02;;;;;;;16.89;85.79;100201.00;10381899;28;20921;-62
2021/08/29 01:21:41;;;;;;;1.25;0.93;;;;;;;16.85;85.93;100191.53;10381383;28;20053;-63
2021/08/29 01:26:57;;;;;;;1.55;0.93;;;;;;;16.86;86.15;100195.06;10376269;28;20546;-63
2021/08/29 01:32:00;;;;;;;2.65;1.50;;;;;;;16.84;86.47;100205.16;10377877;28;20091;-62
2021/08/29 01:37:02;;;;;;;1.25;1.15;;;;;;;16.85;86.13;100198.78;10387840;28;20129;-61
2021/08/29 01:42:04;;;;;;;2.00;1.70;;;;;;;16.80;86.02;100199.28;10388682;28;20120;-62
2021/08/29 01:47:06;;;;;;;1.35;1.25;;;;;;;16.70;86.03;100198.56;10384212;28;20088;-64
2021/08/29 01:52:07;;;;;;;2.95;2.70;;;;;;;16.55;88.06;100201.88;10387241;28;20060;-63
2021/08/29 01:57:13;;;;;;;2.25;1.92;;;;;;;16.51;89.03;100197.00;10388313;28;20061;-61
2021/08/29 02:02:16;;;;;;;2.47;1.77;;;;;;;16.66;88.96;100198.03;10388888;28;20128;-64
2021/08/29 02:07:24;;;;;;;3.53;1.52;;;;;;;16.63;88.34;100194.84;10382510;28;20060;-64
2021/08/29 02:12:30;;;;;;;1.73;1.48;;;;;;;16.46;87.96;100199.34;10381819;28;20583;-62
2021/08/29 02:17:34;;;;;;;2.15;1.95;;;;;;;16.58;89.94;100196.19;10381194;28;20455;-63
2021/08/29 02:22:36;;;;;;;3.47;1.73;;;;;;;16.67;89.36;100198.91;10388548;28;20119;-63
2021/08/29 02:27:39;;;;;;;2.40;2.20;;;;;;;16.68;89.29;100184.44;10387414;28;20537;-63
2021/08/29 02:32:43;;;;;;;2.13;1.92;;;;;;;16.71;88.84;100182.28;10384795;28;20049;-59
2021/08/29 02:37:45;;;;;;;2.03;1.70;;;;;;;16.44;87.43;100191.47;10386396;28;20547;-60
2021/08/29 02:42:48;;;;;;;1.90;1.70;;;;;;;16.54;89.49;100192.16;10402232;28;20085;-63
2021/08/29 02:47:51;;;;;;;1.98;1.65;;;;;;;16.59;87.60;100191.66;10383424;28;20049;-64
2021/08/29 02:52:53;;;;;;;1.60;1.50;;;;;;;16.57;87.62;100193.66;10387746;28;20041;-61
2021/08/29 02:58:01;;;;;;;1.67;1.58;;;;;;;16.60;89.47;100188.81;10385502;28;20065;-64
2021/08/29 03:03:03;;;;;;;1.98;1.52;;;;;;;16.55;88.07;100191.13;10383540;28;20128;-63
2021/08/29 03:08:05;;;;;;;1.40;1.23;;;;;;;16.10;90.81;100186.97;10385286;28;20140;-63
2021/08/29 03:13:07;;;;;;;2.15;1.42;;;;;;;16.23;91.86;100187.34;10386459;28;20132;-61
2021/08/29 03:18:10;;;;;;;0.93;0.77;;;;;;;16.43;89.38;100190.59;10386171;28;20698;-64
2021/08/29 03:23:11;;;;;;;2.33;0.90;;;;;;;16.42;90.61;100180.00;10380047;28;20120;-64
2021/08/29 03:28:13;;;;;;;0.65;0.65;;;;;;;16.53;90.20;100179.72;10385167;28;20490;-61
2021/08/29 03:33:14;;;;;;;0.63;0.57;;;;;;;16.57;88.69;100181.09;10381520;28;20129;-60
2021/08/29 03:38:19;;;;;;;1.45;0.63;;;;;;;16.55;88.76;100172.34;10383603;28;20073;-63
2021/08/29 03:43:20;;;;;;;1.38;0.50;;;;;;;16.52;88.68;100169.97;10384747;28;20146;-62
2021/08/29 03:48:22;;;;;;;0.50;0.50;;;;;;;16.55;88.19;100169.66;10383019;28;20410;-60
2021/08/29 03:53:25;;;;;;;1.15;0.50;;;;;;;16.55;88.16;100169.66;10385389;28;20115;-61
2021/08/29 03:58:26;;;;;;;0.93;0.55;;;;;;;16.57;88.54;100154.22;10382539;28;20107;-63
2021/08/29 04:03:28;;;;;;;0.95;0.35;;;;;;;16.55;88.34;100158.06;10380568;28;20144;-61
2021/08/29 04:08:49;;;;;;;0.57;0.40;;;;;;;16.37;88.97;100166.25;10380183;28;20389;-62
2021/08/29 04:13:54;;;;;;;0.47;0.40;;;;;;;16.29;87.08;100163.53;10380716;28;20130;-64
2021/08/29 04:18:58;;;;;;;0.88;0.60;;;;;;;16.11;89.94;100155.56;10383437;28;20128;-66
2021/08/29 04:24:00;;;;;;;1.75;0.95;;;;;;;16.11;89.85;100151.06;10379058;28;20061;-60
2021/08/29 04:29:02;;;;;;;1.00;0.70;;;;;;;16.25;89.44;100155.78;10384232;28;20053;-62
2021/08/29 04:34:06;;;;;;;1.58;0.90;;;;;;;16.36;87.43;100151.13;10371600;22;20084;-54
2021/08/29 04:39:08;;;;;;;0.55;0.50;;;;;;;16.19;87.02;100153.75;10296777;28;20061;-54
2021/08/29 04:44:11;;;;;;;1.85;0.65;;;;;;;16.06;87.82;100148.00;10278684;28;20129;-55
2021/08/29 04:49:12;;;;;;;0.98;0.88;;;;;;;16.26;88.64;100160.16;10280356;28;20129;-54
2021/08/29 04:54:14;;;;;;;1.15;0.77;;;;;;;16.14;88.31;100155.25;10281891;28;20050;-54
2021/08/29 04:59:15;;;;;;;1.23;0.80;;;;;;;16.13;87.33;100142.84;10280861;28;20066;-54
2021/08/29 05:04:16;;;;;;;1.05;0.60;;;;;;;16.23;87.04;100170.41;10291377;28;20173;-53
2021/08/29 05:09:18;;;;;;;1.85;0.82;;;;;;;16.27;87.90;100163.69;10294106;28;20129;-57
2021/08/29 05:14:19;;;;;;;1.00;0.68;;;;;;;16.11;85.54;100144.81;10293927;28;20146;-55
2021/08/29 05:19:21;;;;;;;0.70;0.45;;;;;;;16.04;86.07;100152.69;10285058;28;20074;-54
2021/08/29 05:24:25;;;;;;;1.30;0.60;;;;;;;16.11;87.85;100169.84;10281026;28;20150;-54
2021/08/29 05:29:27;;;;;;;1.00;0.88;;;;;;;16.28;89.23;100173.44;10282000;28;20071;-54
2021/08/29 05:34:28;;;;;;;0.80;0.75;;;;;;;16.36;86.70;100168.09;10288743;28;20716;-57
2021/08/29 05:39:29;;;;;;;0.52;0.47;;;;;;;16.11;87.21;100164.50;10285285;28;20489;-54
2021/08/29 05:44:31;;;;;;;0.75;0.65;;;;;;;16.29;87.89;100176.94;10284332;28;20129;-53
2021/08/29 05:49:33;;;;;;;1.38;0.73;;;;;;;16.23;87.15;100165.88;10280272;28;20074;-53
2021/08/29 05:54:34;;;;;;;1.05;0.77;;;;;;;16.24;85.72;100172.94;10283248;28;20138;-54
2021/08/29 05:59:36;;;;;;;2.10;0.80;;;;;;;16.23;86.36;100165.88;10279898;28;20150;-53
2021/08/29 06:04:39;;;;;;;2.60;0.75;;;;;;;16.18;85.18;100178.94;10289048;28;20046;-53
2021/08/29 06:09:41;;;;;;;1.13;0.88;;;;;;;16.17;86.82;100169.19;10287975;28;20062;-53
2021/08/29 06:14:42;;;;;;;0.93;0.82;;;;;;;16.27;87.83;100163.69;10278110;28;20122;-54
2021/08/29 06:19:43;;;;;;;0.60;0.55;;;;;;;16.38;86.58;100168.78;10268223;28;20560;-53
2021/08/29 06:24:45;;;;;;;1.30;0.65;;;;;;;16.32;86.35;100163.19;10294830;28;20051;-54
2021/08/29 06:29:46;;;;;;;2.47;0.88;;;;;;;16.31;87.41;100167.72;10274918;28;20106;-54
2021/08/29 06:34:47;;;;;;;2.05;0.95;;;;;;;16.48;87.26;100173.16;10268697;28;20141;-54
2021/08/29 06:39:49;;;;;;;0.85;0.75;;;;;;;16.39;86.77;100161.53;10275149;28;20255;-53
2021/08/29 06:44:50;;;;;;;1.33;0.85;;;;;;;16.58;86.79;100163.94;10269845;28;20050;-55
2021/08/29 06:49:52;;;;;;;1.00;0.70;;;;;;;16.63;85.71;100155.38;10275104;28;20050;-55
2021/08/29 06:54:53;;;;;;;1.58;1.20;;;;;;;16.73;85.54;100161.44;10293225;28;20058;-55
2021/08/29 06:59:55;;;;;;;1.00;0.82;;;;;;;16.80;84.96;100161.63;10272141;28;20089;-56
2021/08/29 07:04:56;;;;;;;2.22;0.43;;;;;;;16.67;84.55;100163.97;10276067;28;20058;-55
2021/08/29 07:09:58;;;;;;;0.70;0.55;;;;;;;16.73;85.78;100168.69;10273391;28;20054;-55
2021/08/29 07:15:00;;;;;;;0.98;0.55;;;;;;;16.60;85.32;100145.81;10273086;28;20129;-55
2021/08/29 07:20:02;;;;;;;1.85;0.68;;;;;;;16.71;85.68;100146.47;10269409;28;20101;-55
2021/08/29 07:25:04;;;;;;;0.50;0.30;;;;;;;16.60;84.10;100158.41;10272688;28;20046;-55
2021/08/29 07:30:05;;;;;;;0.95;0.75;;;;;;;16.68;86.73;100155.75;10272671;28;20056;-55
2021/08/29 07:35:07;;;;;;;2.13;0.63;;;;;;;16.66;86.38;100138.91;10271554;28;20064;-55
2021/08/29 07:40:10;;;;;;;0.45;0.32;;;;;;;16.52;86.82;100153.84;10271907;28;20500;-55
2021/08/29 07:45:11;;;;;;;1.15;1.05;;;;;;;16.52;84.48;100159.22;10285001;28;20702;-55
2021/08/29 07:50:13;;;;;;;1.00;0.63;;;;;;;16.60;86.40;100161.09;10272900;28;20125;-56
2021/08/29 07:55:15;;;;;;;0.70;0.60;;;;;;;16.73;86.64;100163.31;10271461;28;20499;-55
2021/08/29 08:00:17;;;;;;;1.55;0.80;;;;;;;16.81;84.02;100166.00;10272193;28;20154;-55
2021/08/29 08:05:18;;;;;;;0.88;0.73;;;;;;;16.71;84.74;100146.47;10271409;28;20506;-55
2021/08/29 08:10:23;;;;;;;1.50;0.90;;;;;;;16.72;85.04;100161.63;10278896;28;20077;-60
2021/08/29 08:15:24;;;;;;;1.35;1.13;;;;;;;16.69;85.04;100160.09;10269914;28;20050;-56
2021/08/29 08:20:26;;;;;;;1.58;1.00;;;;;;;16.64;83.67;100157.06;10273397;28;20621;-55
2021/08/29 08:25:27;;;;;;;2.15;0.90;;;;;;;16.74;84.86;100168.50;10266638;28;20053;-55
2021/08/29 08:30:28;;;;;;;2.42;1.50;;;;;;;16.97;86.16;100165.19;10270557;28;20074;-56
2021/08/29 08:35:30;;;;;;;1.38;1.00;;;;;;;17.10;84.37;100165.53;10267030;28;20049;-55
2021/08/29 08:40:39;;;;;;;1.55;1.45;;;;;;;17.20;83.84;100176.13;10272374;28;20043;-55
2021/08/29 08:45:45;;;;;;;1.77;1.67;;;;;;;17.09;84.03;100177.31;10263722;28;20066;-56
2021/08/29 08:50:49;;;;;;;2.20;1.35;;;;;;;17.10;85.43;100178.16;10272326;28;20053;-55
2021/08/29 08:55:52;;;;;;;2.90;1.40;;;;;;;17.09;85.33;100161.16;10267795;28;20136;-55
2021/08/29 09:00:54;;;;;;;2.30;2.10;;;;;;;17.18;85.59;100169.25;10267564;28;20125;-56
2021/08/29 09:05:57;;;;;;;2.47;1.90;;;;;;;17.06;85.13;100160.66;10269719;28;20050;-56
2021/08/29 09:10:58;;;;;;;2.50;2.30;;;;;;;16.99;84.71;100148.91;10269593;28;20050;-55
2021/08/29 09:16:13;;;;;;;2.42;2.08;;;;;;;17.23;84.16;100177.63;10264538;28;20381;-56
2021/08/29 09:21:25;;;;;;;2.95;2.50;;;;;;;17.20;85.93;100173.44;10270042;28;20049;-55
2021/08/29 09:26:28;;;;;;;3.63;2.92;;;;;;;17.27;85.33;100166.38;10271819;28;20045;-55
2021/08/29 09:31:46;;;;;;;3.80;3.50;;;;;;;17.34;85.68;100169.25;10277957;28;20679;-55
2021/08/29 09:36:51;;;;;;;1.90;1.63;;;;;;;17.36;84.73;100171.75;10272656;28;20088;-55
2021/08/29 09:42:02;;;;;;;2.08;1.90;;;;;;;17.35;85.44;100156.63;10275706;28;20133;-55
2021/08/29 09:47:05;;;;;;;2.45;2.10;;;;;;;17.42;83.24;100171.06;10267092;28;20065;-58
2021/08/29 09:52:07;;;;;;;2.53;1.63;;;;;;;17.29;82.86;100160.81;10274560;28;20464;-54
2021/08/29 09:57:13;;;;;;;4.40;2.00;;;;;;;17.28;84.10;100160.00;10275926;28;20106;-55
2021/08/29 10:02:32;;;;;;;3.03;1.92;;;;;;;17.38;85.68;100153.59;10279773;28;20049;-56
2021/08/29 10:07:35;;;;;;;1.77;1.48;;;;;;;17.41;82.90;100154.06;10280390;28;20054;-57
2021/08/29 10:12:36;;;;;;;1.95;1.30;;;;;;;17.41;84.37;100158.63;10281735;28;20062;-55
2021/08/29 10:17:40;;;;;;;2.00;1.85;;;;;;;17.55;85.18;100160.63;10278216;28;20051;-58
2021/08/29 10:22:44;;;;;;;1.60;1.33;;;;;;;17.53;82.97;100151.88;10274881;28;20067;-55
2021/08/29 10:27:50;;;;;;;1.88;1.38;;;;;;;17.59;82.88;100159.25;10290562;28;20046;-56
2021/08/29 10:32:52;;;;;;;1.40;1.10;;;;;;;17.63;81.99;100152.53;10283167;22;20065;-60
2021/08/29 10:37:54;;;;;;;3.25;1.77;;;;;;;17.53;82.05;100151.88;10295220;28;20133;-63
2021/08/29 10:42:58;;;;;;;3.05;1.98;;;;;;;17.50;84.83;100157.59;10280458;28;20370;-63
2021/08/29 10:48:01;;;;;;;2.72;2.40;;;;;;;17.70;83.32;100154.53;10275418;28;20509;-60
2021/08/29 10:53:25;;;;;;;5.47;3.72;;;;;;;17.76;83.99;100146.59;10279175;28;20061;-60
2021/08/29 10:58:27;;;;;;;1.60;1.50;;;;;;;17.64;82.93;100158.75;10273651;28;20042;-61
2021/08/29 11:03:28;;;;;;;2.40;1.52;;;;;;;17.65;82.40;100153.22;10272252;28;20054;-61
2021/08/29 11:08:31;;;;;;;2.05;1.85;;;;;;;17.55;81.75;100155.25;10268757;28;20053;-62
2021/08/29 11:13:35;;;;;;;2.85;1.45;;;;;;;17.66;82.43;100145.97;10268875;28;20113;-60
2021/08/29 11:19:01;;;;;;;1.38;1.27;;;;;;;17.72;82.42;100133.66;10286191;28;20105;-61
2021/08/29 11:24:04;;;;;;;1.30;1.08;;;;;;;17.67;80.26;100135.03;10266990;28;20117;-60
2021/08/29 11:29:40;;;;;;;1.03;0.93;;;;;;;17.58;80.03;100138.75;10285785;28;20539;-61
2021/08/29 11:35:05;;;;;;;2.78;1.27;;;;;;;17.57;80.05;100134.38;10272012;28;20794;-60
2021/08/29 11:40:09;;;;;;;1.80;1.23;;;;;;;17.70;82.08;100131.16;10266176;28;20091;-60
2021/08/29 11:45:12;;;;;;;1.60;1.10;;;;;;;17.72;80.38;100139.06;10271670;28;20050;-61
2021/08/29 11:50:17;;;;;;;2.72;1.52;;;;;;;17.77;83.00;100142.06;10286975;28;20062;-61
2021/08/29 11:55:19;;;;;;;1.15;1.05;;;;;;;17.91;81.70;100137.81;10271154;28;20116;-61
2021/08/29 12:00:25;;;;;;;3.00;1.17;;;;;;;17.96;80.28;100140.84;10271413;28;20431;-61
2021/08/29 12:05:27;;;;;;;0.90;0.82;;;;;;;17.75;80.07;100138.72;10266543;28;20050;-61
2021/08/29 12:10:30;;;;;;;1.48;1.20;;;;;;;17.46;81.21;100140.13;10268942;28;20570;-61
2021/08/29 12:15:32;;;;;;;1.40;1.15;;;;;;;17.54;81.18;100136.59;10267159;28;20054;-61
2021/08/29 12:20:34;;;;;;;1.10;1.00;;;;;;;17.56;81.36;100135.38;10269442;28;20499;-61
2021/08/29 12:25:36;;;;;;;2.03;0.90;;;;;;;17.52;81.50;100128.69;10264570;28;20058;-61
2021/08/29 12:30:39;;;;;;;1.30;0.90;;;;;;;17.73;82.80;100128.13;10284667;28;20046;-61
2021/08/29 12:35:42;;;;;;;1.67;1.05;;;;;;;17.74;80.84;100126.25;10267800;28;20141;-61
2021/08/29 12:40:44;;;;;;;1.98;1.88;;;;;;;17.96;81.42;100114.75;10268778;28;20066;-61
2021/08/29 12:45:45;;;;;;;0.98;0.98;;;;;;;18.19;80.69;100113.97;10260141;28;20096;-61
2021/08/29 12:50:52;;;;;;;3.10;0.90;;;;;;;18.40;80.61;100107.13;10263597;28;20056;-62
2021/08/29 12:55:55;;;;;;;1.35;0.80;;;;;;;18.67;79.42;100106.56;10266038;28;20060;-61
2021/08/29 13:00:59;;;;;;;0.90;0.70;;;;;;;18.43;78.53;100104.06;10283484;28;20138;-62
2021/08/29 13:06:04;;;;;;;1.70;0.93;;;;;;;18.36;78.95;100104.78;10264514;28;20059;-61
2021/08/29 13:11:09;;;;;;;1.10;0.80;;;;;;;18.26;79.55;100109.56;10260112;28;20046;-60
2021/08/29 13:16:12;;;;;;;1.58;1.15;;;;;;;18.13;80.81;100104.72;10256222;28;20129;-61
2021/08/29 13:21:30;;;;;;;2.17;1.00;;;;;;;18.19;80.03;100097.81;10256802;28;20050;-61
2021/08/29 13:26:33;;;;;;;1.55;0.98;;;;;;;18.50;81.36;100092.38;10260645;28;20109;-61
2021/08/29 13:31:35;;;;;;;1.27;1.17;;;;;;;18.77;78.20;100100.13;10270977;28;20138;-61
2021/08/29 13:36:47;;;;;;;1.93;1.63;;;;;;;18.90;76.91;100087.72;10279190;28;20050;-62
2021/08/29 13:42:26;;;;;;;0.80;0.77;;;;;;;18.92;77.11;100071.38;10280422;28;20077;-62
2021/08/29 13:47:28;;;;;;;2.65;1.58;;;;;;;19.04;76.28;100083.38;10296805;28;20066;-62
2021/08/29 13:52:37;;;;;;;1.73;1.50;;;;;;;18.76;76.65;100082.25;10282490;28;20130;-62
2021/08/29 13:57:38;;;;;;;1.65;1.00;;;;;;;18.72;78.26;100092.59;10282044;28;20475;-63
2021/08/29 14:02:40;;;;;;;1.30;1.20;;;;;;;18.57;77.45;100084.44;10273593;28;20500;-61
2021/08/29 14:07:42;;;;;;;1.17;0.90;;;;;;;18.50;78.92;100083.47;10274860;28;20050;-60
2021/08/29 14:12:44;;;;;;;2.30;1.23;;;;;;;18.38;79.70;100081.19;10276806;28;20547;-60
2021/08/29 14:17:45;;;;;;;2.15;1.20;;;;;;;18.14;79.59;100078.66;10281000;28;20725;-60
2021/08/29 14:22:48;;;;;;;1.00;0.90;;;;;;;18.00;80.61;100077.56;10272652;28;20054;-65
2021/08/29 14:27:52;;;;;;;1.80;1.25;;;;;;;18.27;80.81;100087.00;10273368;28;20042;-61
2021/08/29 14:32:54;;;;;;;1.33;1.20;;;;;;;18.26;82.76;100088.00;10272746;28;20309;-61
2021/08/29 14:37:55;;;;;;;1.33;0.80;;;;;;;18.19;82.40;100095.09;10276976;28;20527;-61
2021/08/29 14:42:57;;;;;;;0.85;0.40;;;;;;;18.01;82.14;100090.00;10268826;28;20060;-66
2021/08/29 14:47:58;;;;;;;1.10;0.60;;;;;;;17.95;83.44;100088.84;10275031;28;20065;-63
2021/08/29 14:53:00;;;;;;;1.42;0.57;;;;;;;17.60;85.34;100088.28;10280231;28;20156;-62
2021/08/29 14:58:01;;;;;;;2.42;0.98;;;;;;;17.69;88.33;100091.78;10280248;28;21291;-61
2021/08/29 15:03:03;;;;;;;2.83;1.90;;;;;;;17.80;87.80;100087.88;10294913;28;20575;-62
2021/08/29 15:08:05;;;;;;;1.45;0.90;;;;;;;17.84;86.29;100091.91;10281670;28;20047;-62
2021/08/29 15:13:06;;;;;;;1.35;0.95;;;;;;;17.93;86.62;100077.41;10283584;28;20145;-62
2021/08/29 15:18:08;;;;;;;1.70;1.17;;;;;;;18.14;85.76;100084.03;10281854;28;20133;-64
2021/08/29 15:23:09;;;;;;;1.00;0.90;;;;;;;18.32;87.05;100079.19;10276213;28;20142;-63
2021/08/29 15:28:10;;;;;;;1.45;1.00;;;;;;;18.42;85.82;100080.81;10278891;28;20520;-63
2021/08/29 15:33:13;;;;;;;1.63;1.40;;;;;;;18.51;84.44;100093.22;10276069;28;20133;-63
2021/08/29 15:38:14;;;;;;;2.85;1.73;;;;;;;18.56;85.75;100085.44;10276531;28;20210;-63
2021/08/29 15:43:17;;;;;;;2.63;1.77;;;;;;;18.54;84.22;100079.41;10275739;28;20210;-63
2021/08/29 15:48:20;;;;;;;1.48;1.38;;;;;;;18.28;83.84;100077.88;10279826;28;20056;-62
2021/08/29 15:53:23;;;;;;;1.48;0.60;;;;;;;18.29;84.55;100070.66;10276304;28;20598;-62
2021/08/29 15:58:28;;;;;;;1.13;0.73;;;;;;;18.08;83.91;100049.75;10272570;28;20106;-61
2021/08/29 16:03:31;;;;;;;1.88;0.70;;;;;;;18.20;83.36;100061.78;10273817;28;20173;-62
2021/08/29 16:08:34;;;;;;;0.50;0.40;;;;;;;17.90;84.33;100050.00;10272838;28;20418;-63
2021/08/29 16:13:35;;;;;;;0.60;0.30;;;;;;;18.01;84.27;100052.28;10269561;28;20491;-64
2021/08/29 16:18:37;;;;;;;0.73;0.40;;;;;;;18.16;84.24;100061.28;10272569;28;20575;-62
2021/08/29 16:23:38;;;;;;;1.13;0.65;;;;;;;18.08;83.86;100052.44;10268289;28;20047;-61
2021/08/29 16:28:40;;;;;;;0.93;0.50;;;;;;;17.77;84.81;100061.28;10267270;28;20065;-62
2021/08/29 16:33:41;;;;;;;2.58;0.63;;;;;;;17.79;86.78;100070.03;10298184;23;21561;-63
2021/08/29 16:38:43;;;;;;;1.30;0.60;;;;;;;17.82;86.84;100078.59;10325202;28;20058;-61
2021/08/29 16:43:45;;;;;;;0.93;0.80;;;;;;;17.81;87.77;100071.53;10316483;28;20161;-61
2021/08/29 16:48:46;;;;;;;1.48;0.88;;;;;;;17.84;86.03;100070.34;10311700;28;20129;-62
2021/08/29 16:53:47;;;;;;;1.33;1.00;;;;;;;17.82;86.44;100077.78;10308467;28;20132;-62
2021/08/29 16:58:49;;;;;;;1.20;1.08;;;;;;;17.83;87.80;100076.75;10313115;28;20131;-61
2021/08/29 17:03:50;;;;;;;1.42;0.93;;;;;;;17.90;87.65;100076.94;10310293;28;20088;-62
2021/08/29 17:08:52;;;;;;;1.17;1.05;;;;;;;17.79;85.41;100075.41;10313222;28;20077;-61
2021/08/29 17:13:53;;;;;;;2.33;1.30;;;;;;;17.86;87.37;100076.41;10311950;28;20157;-62
2021/08/29 17:18:55;;;;;;;1.20;1.00;;;;;;;17.93;86.50;100073.88;10308195;28;20132;-63
2021/08/29 17:23:57;;;;;;;2.05;0.85;;;;;;;17.88;87.06;100071.69;10303057;28;20057;-60
2021/08/29 17:28:58;;;;;;;1.42;1.00;;;;;;;17.76;86.54;100075.75;10304009;28;21353;-63
2021/08/29 17:34:01;;;;;;;1.08;0.98;;;;;;;17.79;87.97;100081.66;10308442;28;20502;-62
2021/08/29 17:39:02;;;;;;;1.50;1.40;;;;;;;17.70;87.48;100081.84;10313345;28;20474;-63
2021/08/29 17:44:05;;;;;;;1.40;1.00;;;;;;;17.75;87.34;100085.69;10310410;28;20120;-63
2021/08/29 17:49:06;;;;;;;2.40;0.93;;;;;;;17.79;87.41;100086.19;10312133;28;20403;-63
2021/08/29 17:54:08;;;;;;;2.20;1.05;;;;;;;17.80;87.47;100087.88;10326556;28;20236;-64
2021/08/29 17:59:09;;;;;;;1.50;1.00;;;;;;;17.82;88.43;100091.25;10309067;28;20129;-63
2021/08/29 18:04:10;;;;;;;1.58;1.10;;;;;;;17.79;88.71;100086.19;10327633;28;20376;-61
2021/08/29 18:09:12;;;;;;;1.77;1.13;;;;;;;17.80;89.19;100095.94;10326073;28;20548;-62
2021/08/29 18:14:14;;;;;;;1.08;0.60;;;;;;;17.76;87.52;100094.59;10302983;28;20109;-62
2021/08/29 18:19:15;;;;;;;1.20;0.93;;;;;;;17.70;87.45;100101.53;10306682;28;20133;-58
2021/08/29 18:24:17;;;;;;;3.08;0.98;;;;;;;17.70;88.18;100101.53;10315936;28;20073;-57
2021/08/29 18:29:18;;;;;;;2.05;1.10;;;;;;;17.73;87.87;100111.97;10310689;28;20981;-58
2021/08/29 18:34:20;;;;;;;1.50;1.10;;;;;;;17.71;88.39;100118.53;10314446;28;20219;-56
2021/08/29 18:39:23;;;;;;;1.90;1.10;;;;;;;17.72;86.68;100115.66;10313223;28;20058;-59
2021/08/29 18:44:25;;;;;;;1.10;0.80;;;;;;;17.66;86.53;100114.50;10319324;28;20553;-55
2021/08/29 18:49:26;;;;;;;1.90;1.13;;;;;;;17.64;87.06;100115.69;10331584;28;20427;-57
2021/08/29 18:55:14;;;;;;;1.25;1.15;;;;;;;17.65;86.59;100123.59;10312011;28;20135;-57
2021/08/29 19:00:22;;;;;;;1.52;1.13;;;;;;;17.64;86.61;100116.53;10313419;28;20340;-56
2021/08/29 19:05:24;;;;;;;1.42;1.17;;;;;;;17.63;88.10;100125.59;10312397;28;20049;-59
2021/08/29 19:10:26;;;;;;;2.67;1.15;;;;;;;17.63;88.19;100136.38;10314005;28;20067;-59
2021/08/29 19:15:28;;;;;;;1.38;1.10;;;;;;;17.65;87.40;100133.50;10312569;28;20060;-56
2021/08/29 19:20:29;;;;;;;2.50;1.60;;;;;;;17.64;87.88;100135.38;10307381;28;20144;-56
2021/08/29 19:25:32;;;;;;;3.97;1.40;;;;;;;17.65;88.17;100139.75;10308196;28;20143;-57
2021/08/29 19:30:34;;;;;;;3.08;1.02;;;;;;;17.66;87.15;100136.03;10309275;28;20055;-58
2021/08/29 19:35:36;;;;;;;1.80;1.55;;;;;;;17.63;86.69;100130.16;10310545;28;20745;-57
2021/08/29 19:40:37;;;;;;;3.20;1.80;;;;;;;17.63;87.48;100131.00;10309870;28;20487;-58
2021/08/29 19:45:38;;;;;;;2.33;1.88;;;;;;;17.62;86.81;100123.91;10326453;28;20941;-62
2021/08/29 19:50:40;;;;;;;2.55;1.50;;;;;;;17.49;87.16;100129.03;10307878;28;20185;-61
2021/08/29 19:55:41;;;;;;;2.47;1.85;;;;;;;17.56;87.55;100129.16;10296784;28;20041;-63
2021/08/29 20:00:43;;;;;;;3.05;2.63;;;;;;;17.55;87.17;100122.09;10311533;28;20070;-62
2021/08/29 20:05:44;;;;;;;3.47;2.40;;;;;;;17.53;87.03;100124.13;10307689;28;20057;-62
2021/08/29 20:10:46;;;;;;;3.60;2.78;;;;;;;17.49;87.04;100119.09;10309128;28;20109;-62
2021/08/29 20:15:47;;;;;;;3.50;2.25;;;;;;;17.47;86.39;100114.88;10304111;28;20547;-65
2021/08/29 20:20:49;;;;;;;2.80;1.90;;;;;;;17.42;87.15;100096.56;10305166;28;20490;-64
2021/08/29 20:25:50;;;;;;;4.28;2.60;;;;;;;17.41;86.43;100094.06;10304837;28;20057;-61
2021/08/29 20:30:51;;;;;;;5.03;3.22;;;;;;;17.35;86.15;100098.25;10313063;28;20065;-61
2021/08/29 20:35:53;;;;;;;4.40;3.08;;;;;;;17.27;86.10;100093.75;10320470;28;20072;-63
2021/08/29 20:40:54;;;;;;;3.67;2.50;;;;;;;17.16;86.49;100104.00;10305792;28;20050;-64
2021/08/29 20:45:56;;;;;;;4.65;2.08;;;;;;;17.20;87.17;100098.13;10305091;28;20052;-64
2021/08/29 20:51:00;;;;;;;2.00;1.40;;;;;;;17.18;86.02;100100.16;10320259;28;20061;-64
2021/08/29 20:56:02;;;;;;;;;;;;;;;17.09;86.09;100104.69;10326136;28;20137;-63
2021/08/29 21:01:03;;;;;;;2.58;1.73;;;;;;;17.15;86.93;100103.19;10324453;28;19975;-62
2021/08/29 21:06:05;;;;;;;1.83;1.70;;;;;;;17.13;85.81;100091.75;10345891;28;20683;-62
2021/08/29 21:11:06;;;;;;;2.78;2.00;;;;;;;17.08;85.38;100091.41;10326019;28;20057;-65
2021/08/29 21:16:08;;;;;;;3.00;1.50;;;;;;;17.07;86.23;100095.09;10321809;28;20082;-64
2021/08/29 21:21:09;;;;;;;2.30;2.00;;;;;;;17.08;86.65;100092.28;10327337;28;20060;-63
2021/08/29 21:26:11;;;;;;;3.63;1.92;;;;;;;17.02;85.91;100094.78;10334768;28;20576;-62
2021/08/29 21:31:12;;;;;;;2.28;1.75;;;;;;;17.02;86.60;100095.63;10329647;28;20046;-64
2021/08/29 21:36:14;;;;;;;3.47;1.63;;;;;;;17.08;85.35;100099.47;10325695;28;20133;-64
2021/08/29 21:41:15;;;;;;;3.40;1.88;;;;;;;17.10;85.70;100098.31;10327652;28;20539;-61
2021/08/29 21:46:16;;;;;;;2.28;1.60;;;;;;;17.08;84.96;100092.28;10331891;28;20130;-63
2021/08/29 21:51:18;;;;;;;2.13;1.90;;;;;;;17.03;84.85;100091.09;10331709;28;20121;-65
2021/08/29 21:56:19;;;;;;;2.20;1.80;;;;;;;16.98;84.02;100093.44;10342006;28;20220;-62
2021/08/29 22:01:21;;;;;;;2.85;2.17;;;;;;;16.87;83.69;100087.38;10337028;28;20127;-64
2021/08/29 22:06:23;;;;;;;2.72;2.53;;;;;;;16.77;83.99;100079.47;10342318;28;20053;-63
2021/08/29 22:11:24;;;;;;;1.88;1.70;;;;;;;16.82;84.62;100088.91;10336863;28;20050;-63
2021/08/29 22:16:26;;;;;;;2.25;1.95;;;;;;;16.85;83.74;100083.19;10329754;28;20133;-62
2021/08/29 22:21:27;;;;;;;2.85;2.25;;;;;;;16.89;85.07;100084.53;10326190;28;20053;-61
2021/08/29 22:26:29;;;;;;;1.95;1.85;;;;;;;16.95;83.93;100079.34;10324433;28;20050;-63
2021/08/29 22:31:31;;;;;;;2.67;2.47;;;;;;;16.99;85.28;100092.44;10321186;28;20129;-62
2021/08/29 22:36:32;;;;;;;2.42;2.22;;;;;;;16.94;84.58;100079.50;10340079;22;20054;-60
2021/08/29 22:41:34;;;;;;;3.05;2.40;;;;;;;16.77;87.03;100079.47;10348659;28;20145;-60
2021/08/29 22:46:35;;;;;;;2.58;2.20;;;;;;;16.72;86.86;100067.53;10348384;28;20787;-60
2021/08/29 22:51:37;;;;;;;2.78;2.40;;;;;;;16.52;87.37;100077.78;10348466;28;20050;-61
2021/08/29 22:56:38;;;;;;;2.42;1.92;;;;;;;16.54;88.31;100073.94;10347392;28;20127;-61
2021/08/29 23:01:40;;;;;;;2.65;2.45;;;;;;;16.40;89.51;100074.59;10347680;28;20053;-61
2021/08/29 23:06:41;;;;;;;2.00;1.85;;;;;;;16.49;88.46;100072.75;10344549;28;20049;-60
2021/08/29 23:11:43;;;;;;;2.72;2.28;;;;;;;16.50;88.56;100071.72;10346441;28;20463;-61